sensor_id;sensor_type;location;lat;lon;timestamp;P1;durP1;ratioP1;P2;durP2;ratioP2
323;SDS011;149;51.094;17.002;2022-10-31T00:00:10;23.38;;;17.80;;
323;SDS011;149;51.094;17.002;2022-10-31T00:02:39;25.27;;;17.00;;
323;SDS011;149;51.094;17.002;2022-10-31T00:05:06;27.45;;;17.83;;
323;SDS011;149;51.094;17.002;2022-10-31T00:07:38;25.85;;;16.75;;
323;SDS011;149;51.094;17.002;2022-10-31T00:10:08;23.02;;;16.25;;
323;SDS011;149;51.094;17.002;2022-10-31T00:12:36;29.88;;;19.08;;
323;SDS011;149;51.094;17.002;2022-10-31T00:15:03;25.42;;;17.42;;
323;SDS011;149;51.094;17.002;2022-10-31T00:17:30;25.17;;;17.27;;
323;SDS011;149;51.094;17.002;2022-10-31T00:20:01;25.75;;;17.13;;
323;SDS011;149;51.094;17.002;2022-10-31T00:22:28;20.75;;;16.75;;
323;SDS011;149;51.094;17.002;2022-10-31T00:24:55;24.25;;;17.08;;
323;SDS011;149;51.094;17.002;2022-10-31T00:33:46;26.75;;;16.02;;
323;SDS011;149;51.094;17.002;2022-10-31T00:39:04;20.10;;;15.98;;
323;SDS011;149;51.094;17.002;2022-10-31T00:41:31;21.48;;;17.73;;
323;SDS011;149;51.094;17.002;2022-10-31T00:43:58;23.90;;;16.08;;
323;SDS011;149;51.094;17.002;2022-10-31T00:46:40;27.63;;;17.70;;
323;SDS011;149;51.094;17.002;2022-10-31T00:49:07;21.30;;;16.52;;
323;SDS011;149;51.094;17.002;2022-10-31T00:51:34;26.27;;;16.23;;
323;SDS011;149;51.094;17.002;2022-10-31T01:03:48;22.02;;;16.17;;
323;SDS011;149;51.094;17.002;2022-10-31T01:06:16;25.52;;;15.45;;
323;SDS011;149;51.094;17.002;2022-10-31T01:08:43;21.95;;;16.70;;
323;SDS011;149;51.094;17.002;2022-10-31T01:11:16;22.33;;;15.30;;
323;SDS011;149;51.094;17.002;2022-10-31T01:13:47;27.55;;;17.10;;
323;SDS011;149;51.094;17.002;2022-10-31T01:16:18;24.83;;;18.33;;
323;SDS011;149;51.094;17.002;2022-10-31T01:18:47;27.33;;;17.65;;
323;SDS011;149;51.094;17.002;2022-10-31T01:21:25;27.55;;;17.45;;
323;SDS011;149;51.094;17.002;2022-10-31T01:23:54;23.23;;;16.98;;
323;SDS011;149;51.094;17.002;2022-10-31T01:26:26;20.77;;;17.42;;
323;SDS011;149;51.094;17.002;2022-10-31T01:28:58;20.63;;;17.63;;
323;SDS011;149;51.094;17.002;2022-10-31T01:31:32;24.88;;;17.23;;
323;SDS011;149;51.094;17.002;2022-10-31T01:34:01;21.75;;;16.77;;
323;SDS011;149;51.094;17.002;2022-10-31T01:36:29;18.95;;;15.73;;
323;SDS011;149;51.094;17.002;2022-10-31T01:39:07;23.25;;;16.75;;
323;SDS011;149;51.094;17.002;2022-10-31T01:41:37;24.73;;;17.20;;
323;SDS011;149;51.094;17.002;2022-10-31T01:49:23;22.67;;;16.23;;
323;SDS011;149;51.094;17.002;2022-10-31T01:52:00;19.55;;;15.93;;
323;SDS011;149;51.094;17.002;2022-10-31T01:54:33;33.60;;;18.00;;
323;SDS011;149;51.094;17.002;2022-10-31T01:57:05;29.85;;;17.40;;
323;SDS011;149;51.094;17.002;2022-10-31T01:59:35;22.88;;;17.98;;
323;SDS011;149;51.094;17.002;2022-10-31T02:02:06;24.33;;;17.23;;
323;SDS011;149;51.094;17.002;2022-10-31T02:04:35;24.50;;;17.48;;
323;SDS011;149;51.094;17.002;2022-10-31T02:10:09;27.20;;;17.35;;
323;SDS011;149;51.094;17.002;2022-10-31T02:12:38;25.73;;;17.75;;
323;SDS011;149;51.094;17.002;2022-10-31T02:15:07;31.95;;;16.13;;
323;SDS011;149;51.094;17.002;2022-10-31T02:17:35;21.50;;;18.17;;
323;SDS011;149;51.094;17.002;2022-10-31T02:20:14;21.52;;;17.00;;
323;SDS011;149;51.094;17.002;2022-10-31T02:28:33;25.55;;;16.45;;
323;SDS011;149;51.094;17.002;2022-10-31T02:31:21;28.02;;;17.58;;
323;SDS011;149;51.094;17.002;2022-10-31T02:34:43;32.22;;;18.58;;
323;SDS011;149;51.094;17.002;2022-10-31T02:37:26;27.27;;;18.00;;
323;SDS011;149;51.094;17.002;2022-10-31T02:40:37;26.50;;;17.80;;
323;SDS011;149;51.094;17.002;2022-10-31T02:46:00;31.73;;;18.67;;
323;SDS011;149;51.094;17.002;2022-10-31T02:48:50;24.60;;;17.20;;
323;SDS011;149;51.094;17.002;2022-10-31T02:51:49;35.03;;;17.15;;
323;SDS011;149;51.094;17.002;2022-10-31T02:54:26;22.70;;;17.13;;
323;SDS011;149;51.094;17.002;2022-10-31T02:57:02;24.52;;;17.48;;
323;SDS011;149;51.094;17.002;2022-10-31T03:03:33;24.65;;;18.65;;
323;SDS011;149;51.094;17.002;2022-10-31T03:06:29;22.98;;;16.42;;
323;SDS011;149;51.094;17.002;2022-10-31T03:09:40;21.90;;;15.60;;
323;SDS011;149;51.094;17.002;2022-10-31T03:20:38;22.15;;;16.00;;
323;SDS011;149;51.094;17.002;2022-10-31T03:23:09;23.75;;;18.08;;
323;SDS011;149;51.094;17.002;2022-10-31T03:25:45;24.38;;;16.15;;
323;SDS011;149;51.094;17.002;2022-10-31T03:28:18;20.08;;;17.50;;
323;SDS011;149;51.094;17.002;2022-10-31T03:30:50;19.88;;;15.90;;
323;SDS011;149;51.094;17.002;2022-10-31T03:33:21;25.63;;;17.20;;
323;SDS011;149;51.094;17.002;2022-10-31T03:35:54;23.10;;;14.80;;
323;SDS011;149;51.094;17.002;2022-10-31T03:38:26;19.42;;;16.00;;
323;SDS011;149;51.094;17.002;2022-10-31T03:40:55;22.70;;;16.75;;
323;SDS011;149;51.094;17.002;2022-10-31T03:43:28;22.85;;;15.32;;
323;SDS011;149;51.094;17.002;2022-10-31T03:46:01;20.02;;;15.55;;
323;SDS011;149;51.094;17.002;2022-10-31T03:48:28;26.70;;;16.83;;
323;SDS011;149;51.094;17.002;2022-10-31T03:54:08;19.13;;;15.05;;
323;SDS011;149;51.094;17.002;2022-10-31T03:56:46;25.45;;;17.17;;
323;SDS011;149;51.094;17.002;2022-10-31T03:59:41;25.60;;;15.70;;
323;SDS011;149;51.094;17.002;2022-10-31T04:02:17;23.73;;;15.73;;
323;SDS011;149;51.094;17.002;2022-10-31T04:04:48;22.35;;;17.15;;
323;SDS011;149;51.094;17.002;2022-10-31T04:07:17;19.35;;;15.23;;
323;SDS011;149;51.094;17.002;2022-10-31T04:09:47;20.40;;;15.77;;
323;SDS011;149;51.094;17.002;2022-10-31T04:12:16;23.67;;;16.50;;
323;SDS011;149;51.094;17.002;2022-10-31T04:14:45;24.83;;;17.52;;
323;SDS011;149;51.094;17.002;2022-10-31T04:17:15;22.25;;;16.40;;
323;SDS011;149;51.094;17.002;2022-10-31T04:19:47;18.77;;;15.90;;
323;SDS011;149;51.094;17.002;2022-10-31T04:22:15;19.90;;;16.98;;
323;SDS011;149;51.094;17.002;2022-10-31T04:24:43;22.15;;;16.60;;
323;SDS011;149;51.094;17.002;2022-10-31T04:27:10;24.85;;;15.68;;
323;SDS011;149;51.094;17.002;2022-10-31T04:29:37;21.92;;;16.63;;
323;SDS011;149;51.094;17.002;2022-10-31T04:32:10;21.42;;;17.05;;
323;SDS011;149;51.094;17.002;2022-10-31T04:34:37;23.33;;;16.52;;
323;SDS011;149;51.094;17.002;2022-10-31T04:37:05;26.38;;;17.00;;
323;SDS011;149;51.094;17.002;2022-10-31T04:39:33;25.70;;;17.25;;
323;SDS011;149;51.094;17.002;2022-10-31T04:42:00;23.70;;;18.27;;
323;SDS011;149;51.094;17.002;2022-10-31T04:44:28;25.55;;;17.20;;
323;SDS011;149;51.094;17.002;2022-10-31T04:46:55;21.88;;;17.35;;
323;SDS011;149;51.094;17.002;2022-10-31T04:49:24;21.75;;;17.73;;
323;SDS011;149;51.094;17.002;2022-10-31T04:51:51;22.02;;;16.73;;
323;SDS011;149;51.094;17.002;2022-10-31T04:54:18;20.63;;;18.02;;
323;SDS011;149;51.094;17.002;2022-10-31T04:56:46;25.60;;;17.40;;
323;SDS011;149;51.094;17.002;2022-10-31T04:59:15;29.20;;;17.05;;
323;SDS011;149;51.094;17.002;2022-10-31T05:01:42;25.02;;;18.02;;
323;SDS011;149;51.094;17.002;2022-10-31T05:04:10;21.77;;;18.27;;
323;SDS011;149;51.094;17.002;2022-10-31T05:06:37;29.45;;;18.38;;
323;SDS011;149;51.094;17.002;2022-10-31T05:09:10;31.63;;;16.80;;
323;SDS011;149;51.094;17.002;2022-10-31T05:11:38;19.98;;;15.52;;
323;SDS011;149;51.094;17.002;2022-10-31T05:14:05;28.20;;;17.27;;
323;SDS011;149;51.094;17.002;2022-10-31T05:16:32;21.50;;;17.20;;
323;SDS011;149;51.094;17.002;2022-10-31T05:19:01;22.02;;;15.13;;
323;SDS011;149;51.094;17.002;2022-10-31T05:21:28;23.40;;;17.73;;
323;SDS011;149;51.094;17.002;2022-10-31T05:23:55;18.50;;;15.38;;
323;SDS011;149;51.094;17.002;2022-10-31T05:26:23;23.92;;;15.65;;
323;SDS011;149;51.094;17.002;2022-10-31T05:28:52;27.05;;;17.65;;
323;SDS011;149;51.094;17.002;2022-10-31T05:31:25;28.15;;;17.67;;
323;SDS011;149;51.094;17.002;2022-10-31T05:33:53;22.60;;;15.95;;
323;SDS011;149;51.094;17.002;2022-10-31T05:36:20;31.50;;;19.55;;
323;SDS011;149;51.094;17.002;2022-10-31T05:38:49;25.30;;;16.92;;
323;SDS011;149;51.094;17.002;2022-10-31T05:41:21;27.70;;;17.48;;
323;SDS011;149;51.094;17.002;2022-10-31T05:43:51;27.20;;;15.82;;
323;SDS011;149;51.094;17.002;2022-10-31T05:46:19;22.58;;;15.55;;
323;SDS011;149;51.094;17.002;2022-10-31T05:48:46;23.35;;;15.18;;
323;SDS011;149;51.094;17.002;2022-10-31T05:51:14;20.77;;;14.93;;
323;SDS011;149;51.094;17.002;2022-10-31T05:53:42;28.45;;;17.50;;
323;SDS011;149;51.094;17.002;2022-10-31T05:56:09;19.75;;;16.10;;
323;SDS011;149;51.094;17.002;2022-10-31T05:58:36;23.33;;;16.42;;
323;SDS011;149;51.094;17.002;2022-10-31T06:01:04;22.73;;;14.98;;
323;SDS011;149;51.094;17.002;2022-10-31T06:03:32;25.08;;;15.27;;
323;SDS011;149;51.094;17.002;2022-10-31T06:05:59;25.60;;;15.20;;
323;SDS011;149;51.094;17.002;2022-10-31T06:08:28;23.20;;;14.73;;
323;SDS011;149;51.094;17.002;2022-10-31T06:10:57;18.33;;;14.48;;
323;SDS011;149;51.094;17.002;2022-10-31T06:13:27;24.30;;;13.70;;
323;SDS011;149;51.094;17.002;2022-10-31T06:15:54;19.88;;;14.90;;
323;SDS011;149;51.094;17.002;2022-10-31T06:18:21;28.15;;;14.90;;
323;SDS011;149;51.094;17.002;2022-10-31T06:20:48;26.23;;;13.95;;
323;SDS011;149;51.094;17.002;2022-10-31T06:23:16;21.70;;;13.75;;
323;SDS011;149;51.094;17.002;2022-10-31T06:25:43;17.48;;;14.50;;
323;SDS011;149;51.094;17.002;2022-10-31T06:28:18;21.23;;;12.90;;
323;SDS011;149;51.094;17.002;2022-10-31T06:30:45;18.85;;;14.20;;
323;SDS011;149;51.094;17.002;2022-10-31T06:33:12;15.98;;;13.55;;
323;SDS011;149;51.094;17.002;2022-10-31T06:35:44;23.58;;;15.63;;
323;SDS011;149;51.094;17.002;2022-10-31T06:38:13;22.05;;;11.43;;
323;SDS011;149;51.094;17.002;2022-10-31T06:40:45;17.73;;;12.10;;
323;SDS011;149;51.094;17.002;2022-10-31T06:43:14;21.55;;;13.63;;
323;SDS011;149;51.094;17.002;2022-10-31T06:45:41;18.70;;;12.93;;
323;SDS011;149;51.094;17.002;2022-10-31T06:48:11;21.33;;;13.25;;
323;SDS011;149;51.094;17.002;2022-10-31T06:50:43;19.42;;;13.20;;
323;SDS011;149;51.094;17.002;2022-10-31T06:53:10;23.45;;;13.32;;
323;SDS011;149;51.094;17.002;2022-10-31T06:59:25;22.73;;;14.35;;
323;SDS011;149;51.094;17.002;2022-10-31T07:01:53;15.18;;;11.18;;
323;SDS011;149;51.094;17.002;2022-10-31T07:04:21;18.88;;;11.02;;
323;SDS011;149;51.094;17.002;2022-10-31T07:06:50;21.30;;;11.95;;
323;SDS011;149;51.094;17.002;2022-10-31T07:09:21;17.33;;;9.77;;
323;SDS011;149;51.094;17.002;2022-10-31T07:11:48;15.38;;;9.80;;
323;SDS011;149;51.094;17.002;2022-10-31T07:14:18;11.43;;;9.38;;
323;SDS011;149;51.094;17.002;2022-10-31T07:16:49;13.20;;;10.10;;
323;SDS011;149;51.094;17.002;2022-10-31T07:19:20;23.45;;;10.32;;
323;SDS011;149;51.094;17.002;2022-10-31T07:21:48;18.90;;;10.82;;
323;SDS011;149;51.094;17.002;2022-10-31T07:24:21;22.23;;;10.20;;
323;SDS011;149;51.094;17.002;2022-10-31T07:26:51;17.50;;;10.93;;
323;SDS011;149;51.094;17.002;2022-10-31T07:29:18;18.10;;;9.43;;
323;SDS011;149;51.094;17.002;2022-10-31T07:31:45;18.97;;;10.00;;
323;SDS011;149;51.094;17.002;2022-10-31T07:34:13;18.40;;;11.37;;
323;SDS011;149;51.094;17.002;2022-10-31T07:36:40;15.53;;;11.07;;
323;SDS011;149;51.094;17.002;2022-10-31T07:39:17;16.67;;;10.23;;
323;SDS011;149;51.094;17.002;2022-10-31T07:41:47;14.03;;;9.70;;
323;SDS011;149;51.094;17.002;2022-10-31T07:44:14;18.40;;;11.30;;
323;SDS011;149;51.094;17.002;2022-10-31T07:46:45;12.47;;;10.13;;
323;SDS011;149;51.094;17.002;2022-10-31T07:49:13;14.20;;;11.47;;
323;SDS011;149;51.094;17.002;2022-10-31T07:51:42;21.83;;;10.13;;
323;SDS011;149;51.094;17.002;2022-10-31T07:54:11;13.80;;;10.20;;
323;SDS011;149;51.094;17.002;2022-10-31T07:56:39;17.30;;;9.70;;
323;SDS011;149;51.094;17.002;2022-10-31T07:59:09;16.00;;;8.53;;
323;SDS011;149;51.094;17.002;2022-10-31T08:01:36;11.60;;;8.47;;
323;SDS011;149;51.094;17.002;2022-10-31T08:04:03;15.33;;;9.50;;
323;SDS011;149;51.094;17.002;2022-10-31T08:06:31;15.83;;;9.93;;
323;SDS011;149;51.094;17.002;2022-10-31T08:09:09;19.17;;;11.30;;
323;SDS011;149;51.094;17.002;2022-10-31T08:11:38;13.67;;;9.00;;
323;SDS011;149;51.094;17.002;2022-10-31T08:14:05;13.17;;;9.47;;
323;SDS011;149;51.094;17.002;2022-10-31T08:16:34;13.27;;;9.27;;
323;SDS011;149;51.094;17.002;2022-10-31T08:19:07;14.30;;;9.53;;
323;SDS011;149;51.094;17.002;2022-10-31T08:21:35;10.37;;;8.40;;
323;SDS011;149;51.094;17.002;2022-10-31T08:24:02;10.40;;;8.63;;
323;SDS011;149;51.094;17.002;2022-10-31T08:26:29;10.60;;;8.30;;
323;SDS011;149;51.094;17.002;2022-10-31T08:28:57;12.13;;;8.90;;
323;SDS011;149;51.094;17.002;2022-10-31T08:31:28;13.53;;;7.90;;
323;SDS011;149;51.094;17.002;2022-10-31T08:34:03;13.00;;;8.27;;
323;SDS011;149;51.094;17.002;2022-10-31T08:36:30;11.53;;;8.50;;
323;SDS011;149;51.094;17.002;2022-10-31T08:38:58;13.40;;;7.80;;
323;SDS011;149;51.094;17.002;2022-10-31T08:41:27;11.80;;;8.50;;
323;SDS011;149;51.094;17.002;2022-10-31T08:43:55;9.80;;;8.00;;
323;SDS011;149;51.094;17.002;2022-10-31T08:46:26;9.97;;;7.70;;
323;SDS011;149;51.094;17.002;2022-10-31T08:48:54;10.50;;;6.33;;
323;SDS011;149;51.094;17.002;2022-10-31T08:51:26;9.33;;;7.43;;
323;SDS011;149;51.094;17.002;2022-10-31T08:53:57;11.70;;;6.73;;
323;SDS011;149;51.094;17.002;2022-10-31T08:56:34;10.67;;;6.40;;
323;SDS011;149;51.094;17.002;2022-10-31T08:59:06;9.70;;;6.50;;
323;SDS011;149;51.094;17.002;2022-10-31T09:01:37;8.53;;;6.70;;
323;SDS011;149;51.094;17.002;2022-10-31T09:04:07;11.40;;;6.97;;
323;SDS011;149;51.094;17.002;2022-10-31T09:06:38;8.80;;;6.00;;
323;SDS011;149;51.094;17.002;2022-10-31T09:09:31;13.23;;;7.53;;
323;SDS011;149;51.094;17.002;2022-10-31T09:12:02;8.50;;;6.60;;
323;SDS011;149;51.094;17.002;2022-10-31T09:14:31;7.60;;;6.00;;
323;SDS011;149;51.094;17.002;2022-10-31T09:16:59;6.90;;;5.30;;
323;SDS011;149;51.094;17.002;2022-10-31T09:19:28;10.60;;;5.73;;
323;SDS011;149;51.094;17.002;2022-10-31T09:21:59;7.90;;;5.50;;
323;SDS011;149;51.094;17.002;2022-10-31T09:24:37;11.50;;;5.80;;
323;SDS011;149;51.094;17.002;2022-10-31T09:27:06;7.17;;;5.53;;
323;SDS011;149;51.094;17.002;2022-10-31T09:29:35;8.90;;;5.27;;
323;SDS011;149;51.094;17.002;2022-10-31T09:32:04;10.00;;;4.60;;
323;SDS011;149;51.094;17.002;2022-10-31T09:34:35;6.20;;;4.60;;
323;SDS011;149;51.094;17.002;2022-10-31T09:37:05;6.57;;;4.47;;
323;SDS011;149;51.094;17.002;2022-10-31T09:39:37;9.10;;;4.90;;
323;SDS011;149;51.094;17.002;2022-10-31T09:45:26;6.83;;;3.77;;
323;SDS011;149;51.094;17.002;2022-10-31T09:48:20;7.90;;;5.90;;
323;SDS011;149;51.094;17.002;2022-10-31T09:51:00;8.70;;;6.20;;
323;SDS011;149;51.094;17.002;2022-10-31T09:56:39;11.53;;;5.77;;
323;SDS011;149;51.094;17.002;2022-10-31T09:59:11;8.87;;;5.83;;
323;SDS011;149;51.094;17.002;2022-10-31T10:01:46;7.27;;;4.50;;
323;SDS011;149;51.094;17.002;2022-10-31T10:04:57;12.93;;;4.97;;
323;SDS011;149;51.094;17.002;2022-10-31T10:07:53;7.17;;;4.30;;
323;SDS011;149;51.094;17.002;2022-10-31T10:13:19;5.57;;;4.53;;
323;SDS011;149;51.094;17.002;2022-10-31T10:16:00;8.63;;;4.97;;
323;SDS011;149;51.094;17.002;2022-10-31T10:18:51;7.93;;;4.97;;
323;SDS011;149;51.094;17.002;2022-10-31T10:21:51;11.30;;;5.00;;
323;SDS011;149;51.094;17.002;2022-10-31T10:24:40;5.30;;;4.60;;
323;SDS011;149;51.094;17.002;2022-10-31T10:33:15;10.90;;;5.23;;
323;SDS011;149;51.094;17.002;2022-10-31T10:36:16;7.90;;;5.37;;
323;SDS011;149;51.094;17.002;2022-10-31T10:38:51;6.67;;;5.40;;
323;SDS011;149;51.094;17.002;2022-10-31T10:41:28;13.83;;;6.97;;
323;SDS011;149;51.094;17.002;2022-10-31T10:44:00;6.00;;;4.90;;
323;SDS011;149;51.094;17.002;2022-10-31T10:46:40;16.00;;;5.03;;
323;SDS011;149;51.094;17.002;2022-10-31T10:49:43;6.90;;;5.40;;
323;SDS011;149;51.094;17.002;2022-10-31T10:55:51;15.27;;;7.17;;
323;SDS011;149;51.094;17.002;2022-10-31T10:58:28;13.70;;;6.47;;
323;SDS011;149;51.094;17.002;2022-10-31T11:00:55;6.60;;;5.67;;
323;SDS011;149;51.094;17.002;2022-10-31T11:03:26;8.87;;;5.70;;
323;SDS011;149;51.094;17.002;2022-10-31T11:05:56;7.10;;;5.43;;
323;SDS011;149;51.094;17.002;2022-10-31T11:11:08;8.03;;;5.00;;
323;SDS011;149;51.094;17.002;2022-10-31T11:13:45;4.87;;;4.27;;
323;SDS011;149;51.094;17.002;2022-10-31T11:16:38;8.00;;;5.53;;
323;SDS011;149;51.094;17.002;2022-10-31T11:19:08;7.67;;;4.90;;
323;SDS011;149;51.094;17.002;2022-10-31T11:21:39;9.47;;;4.83;;
323;SDS011;149;51.094;17.002;2022-10-31T11:24:22;7.23;;;4.70;;
323;SDS011;149;51.094;17.002;2022-10-31T11:27:03;10.83;;;5.13;;
323;SDS011;149;51.094;17.002;2022-10-31T11:30:03;8.57;;;4.50;;
323;SDS011;149;51.094;17.002;2022-10-31T11:32:47;7.50;;;5.20;;
323;SDS011;149;51.094;17.002;2022-10-31T11:35:20;9.73;;;5.27;;
323;SDS011;149;51.094;17.002;2022-10-31T11:37:50;10.60;;;5.47;;
323;SDS011;149;51.094;17.002;2022-10-31T11:40:23;10.20;;;4.33;;
323;SDS011;149;51.094;17.002;2022-10-31T11:42:56;6.53;;;5.20;;
323;SDS011;149;51.094;17.002;2022-10-31T11:45:32;7.47;;;4.73;;
323;SDS011;149;51.094;17.002;2022-10-31T11:48:23;9.43;;;5.10;;
323;SDS011;149;51.094;17.002;2022-10-31T11:50:52;8.43;;;4.83;;
323;SDS011;149;51.094;17.002;2022-10-31T11:53:29;6.83;;;4.10;;
323;SDS011;149;51.094;17.002;2022-10-31T11:56:15;15.53;;;6.10;;
323;SDS011;149;51.094;17.002;2022-10-31T11:58:55;8.07;;;4.60;;
323;SDS011;149;51.094;17.002;2022-10-31T12:01:31;8.53;;;6.00;;
323;SDS011;149;51.094;17.002;2022-10-31T12:04:11;6.90;;;4.47;;
323;SDS011;149;51.094;17.002;2022-10-31T12:06:41;12.73;;;5.10;;
323;SDS011;149;51.094;17.002;2022-10-31T12:12:11;7.00;;;5.40;;
323;SDS011;149;51.094;17.002;2022-10-31T12:15:17;8.43;;;5.53;;
323;SDS011;149;51.094;17.002;2022-10-31T12:21:19;7.00;;;4.63;;
323;SDS011;149;51.094;17.002;2022-10-31T12:24:00;12.30;;;5.10;;
323;SDS011;149;51.094;17.002;2022-10-31T12:26:38;6.13;;;5.03;;
323;SDS011;149;51.094;17.002;2022-10-31T12:29:29;9.00;;;4.53;;
323;SDS011;149;51.094;17.002;2022-10-31T12:35:34;16.70;;;4.03;;
323;SDS011;149;51.094;17.002;2022-10-31T12:41:39;6.80;;;4.97;;
323;SDS011;149;51.094;17.002;2022-10-31T12:56:09;13.60;;;5.93;;
323;SDS011;149;51.094;17.002;2022-10-31T12:59:14;8.63;;;6.20;;
323;SDS011;149;51.094;17.002;2022-10-31T13:01:55;9.87;;;5.20;;
323;SDS011;149;51.094;17.002;2022-10-31T13:07:43;7.47;;;5.67;;
323;SDS011;149;51.094;17.002;2022-10-31T13:10:17;9.70;;;6.23;;
323;SDS011;149;51.094;17.002;2022-10-31T13:13:00;12.30;;;6.10;;
323;SDS011;149;51.094;17.002;2022-10-31T13:15:47;8.63;;;6.10;;
323;SDS011;149;51.094;17.002;2022-10-31T13:21:26;8.73;;;5.27;;
323;SDS011;149;51.094;17.002;2022-10-31T13:26:38;5.70;;;5.10;;
323;SDS011;149;51.094;17.002;2022-10-31T13:32:09;10.00;;;5.77;;
323;SDS011;149;51.094;17.002;2022-10-31T13:34:39;8.20;;;5.40;;
323;SDS011;149;51.094;17.002;2022-10-31T13:37:27;8.97;;;7.20;;
323;SDS011;149;51.094;17.002;2022-10-31T13:42:54;8.60;;;6.00;;
323;SDS011;149;51.094;17.002;2022-10-31T13:45:48;7.63;;;5.77;;
323;SDS011;149;51.094;17.002;2022-10-31T13:48:20;9.27;;;6.30;;
323;SDS011;149;51.094;17.002;2022-10-31T13:51:09;7.50;;;5.17;;
323;SDS011;149;51.094;17.002;2022-10-31T13:53:56;6.83;;;5.70;;
323;SDS011;149;51.094;17.002;2022-10-31T13:56:30;8.67;;;5.43;;
323;SDS011;149;51.094;17.002;2022-10-31T14:01:37;11.13;;;6.73;;
323;SDS011;149;51.094;17.002;2022-10-31T14:04:20;11.23;;;7.70;;
323;SDS011;149;51.094;17.002;2022-10-31T14:06:54;9.80;;;6.80;;
323;SDS011;149;51.094;17.002;2022-10-31T14:09:37;8.70;;;6.27;;
323;SDS011;149;51.094;17.002;2022-10-31T14:12:07;8.00;;;5.57;;
323;SDS011;149;51.094;17.002;2022-10-31T14:14:46;12.80;;;6.60;;
323;SDS011;149;51.094;17.002;2022-10-31T14:17:19;8.03;;;5.73;;
323;SDS011;149;51.094;17.002;2022-10-31T14:19:59;8.93;;;5.43;;
323;SDS011;149;51.094;17.002;2022-10-31T14:22:51;7.97;;;5.30;;
323;SDS011;149;51.094;17.002;2022-10-31T14:25:51;5.90;;;5.40;;
323;SDS011;149;51.094;17.002;2022-10-31T14:28:19;11.50;;;6.43;;
323;SDS011;149;51.094;17.002;2022-10-31T14:30:58;5.53;;;4.47;;
323;SDS011;149;51.094;17.002;2022-10-31T14:33:26;11.20;;;6.80;;
323;SDS011;149;51.094;17.002;2022-10-31T14:36:04;8.33;;;5.93;;
323;SDS011;149;51.094;17.002;2022-10-31T14:41:36;9.67;;;5.60;;
323;SDS011;149;51.094;17.002;2022-10-31T14:44:32;8.20;;;6.10;;
323;SDS011;149;51.094;17.002;2022-10-31T14:50:20;12.80;;;6.73;;
323;SDS011;149;51.094;17.002;2022-10-31T14:53:15;10.77;;;5.90;;
323;SDS011;149;51.094;17.002;2022-10-31T14:55:54;8.43;;;6.00;;
323;SDS011;149;51.094;17.002;2022-10-31T14:58:28;9.43;;;6.80;;
323;SDS011;149;51.094;17.002;2022-10-31T15:01:04;6.33;;;5.73;;
323;SDS011;149;51.094;17.002;2022-10-31T15:03:34;13.93;;;5.90;;
323;SDS011;149;51.094;17.002;2022-10-31T15:06:18;6.90;;;6.27;;
323;SDS011;149;51.094;17.002;2022-10-31T15:08:49;6.53;;;5.67;;
323;SDS011;149;51.094;17.002;2022-10-31T15:11:23;8.73;;;5.60;;
323;SDS011;149;51.094;17.002;2022-10-31T15:13:56;13.87;;;6.70;;
323;SDS011;149;51.094;17.002;2022-10-31T15:16:26;8.40;;;6.20;;
323;SDS011;149;51.094;17.002;2022-10-31T15:19:04;15.57;;;6.70;;
323;SDS011;149;51.094;17.002;2022-10-31T15:21:40;13.83;;;6.30;;
323;SDS011;149;51.094;17.002;2022-10-31T15:24:14;10.23;;;7.17;;
323;SDS011;149;51.094;17.002;2022-10-31T15:26:44;7.97;;;7.27;;
323;SDS011;149;51.094;17.002;2022-10-31T15:29:17;13.63;;;7.43;;
323;SDS011;149;51.094;17.002;2022-10-31T15:32:09;12.77;;;8.90;;
323;SDS011;149;51.094;17.002;2022-10-31T15:34:55;9.53;;;8.20;;
323;SDS011;149;51.094;17.002;2022-10-31T15:37:25;12.80;;;8.73;;
323;SDS011;149;51.094;17.002;2022-10-31T15:39:53;10.47;;;8.10;;
323;SDS011;149;51.094;17.002;2022-10-31T15:45:00;11.37;;;8.20;;
323;SDS011;149;51.094;17.002;2022-10-31T15:47:33;14.97;;;7.83;;
323;SDS011;149;51.094;17.002;2022-10-31T15:50:04;12.93;;;8.30;;
323;SDS011;149;51.094;17.002;2022-10-31T15:52:46;10.60;;;7.10;;
323;SDS011;149;51.094;17.002;2022-10-31T15:55:18;9.87;;;8.60;;
323;SDS011;149;51.094;17.002;2022-10-31T15:57:51;16.00;;;9.33;;
323;SDS011;149;51.094;17.002;2022-10-31T16:00:21;12.23;;;9.13;;
323;SDS011;149;51.094;17.002;2022-10-31T16:03:05;16.27;;;10.43;;
323;SDS011;149;51.094;17.002;2022-10-31T16:05:43;12.23;;;9.07;;
323;SDS011;149;51.094;17.002;2022-10-31T16:16:52;12.40;;;9.90;;
323;SDS011;149;51.094;17.002;2022-10-31T16:19:38;21.47;;;11.17;;
323;SDS011;149;51.094;17.002;2022-10-31T16:22:37;25.23;;;12.70;;
323;SDS011;149;51.094;17.002;2022-10-31T16:25:28;17.77;;;11.30;;
323;SDS011;149;51.094;17.002;2022-10-31T16:28:23;19.37;;;12.13;;
323;SDS011;149;51.094;17.002;2022-10-31T16:31:14;11.97;;;9.93;;
323;SDS011;149;51.094;17.002;2022-10-31T16:33:48;20.13;;;9.60;;
323;SDS011;149;51.094;17.002;2022-10-31T16:39:02;18.97;;;11.33;;
323;SDS011;149;51.094;17.002;2022-10-31T16:41:31;13.10;;;10.23;;
323;SDS011;149;51.094;17.002;2022-10-31T16:44:14;13.77;;;11.00;;
323;SDS011;149;51.094;17.002;2022-10-31T16:49:44;19.07;;;11.67;;
323;SDS011;149;51.094;17.002;2022-10-31T16:52:16;25.60;;;14.53;;
323;SDS011;149;51.094;17.002;2022-10-31T16:54:43;18.40;;;11.90;;
323;SDS011;149;51.094;17.002;2022-10-31T16:57:15;20.87;;;14.13;;
323;SDS011;149;51.094;17.002;2022-10-31T16:59:59;18.93;;;13.63;;
323;SDS011;149;51.094;17.002;2022-10-31T17:02:26;25.67;;;12.83;;
323;SDS011;149;51.094;17.002;2022-10-31T17:04:54;24.40;;;12.83;;
323;SDS011;149;51.094;17.002;2022-10-31T17:07:23;25.27;;;14.83;;
323;SDS011;149;51.094;17.002;2022-10-31T17:09:50;25.87;;;16.13;;
323;SDS011;149;51.094;17.002;2022-10-31T17:12:22;23.57;;;14.17;;
323;SDS011;149;51.094;17.002;2022-10-31T17:14:54;29.53;;;14.83;;
323;SDS011;149;51.094;17.002;2022-10-31T17:17:22;16.57;;;14.07;;
323;SDS011;149;51.094;17.002;2022-10-31T17:19:50;22.90;;;13.93;;
323;SDS011;149;51.094;17.002;2022-10-31T17:22:17;23.93;;;14.20;;
323;SDS011;149;51.094;17.002;2022-10-31T17:24:45;21.53;;;13.20;;
323;SDS011;149;51.094;17.002;2022-10-31T17:27:12;26.53;;;15.40;;
323;SDS011;149;51.094;17.002;2022-10-31T17:29:39;18.30;;;13.30;;
323;SDS011;149;51.094;17.002;2022-10-31T17:32:09;19.52;;;12.27;;
323;SDS011;149;51.094;17.002;2022-10-31T17:34:37;26.30;;;15.03;;
323;SDS011;149;51.094;17.002;2022-10-31T17:37:08;17.02;;;12.25;;
323;SDS011;149;51.094;17.002;2022-10-31T17:39:37;23.73;;;12.75;;
323;SDS011;149;51.094;17.002;2022-10-31T17:42:05;22.02;;;14.15;;
323;SDS011;149;51.094;17.002;2022-10-31T17:44:33;22.75;;;14.57;;
323;SDS011;149;51.094;17.002;2022-10-31T17:47:04;21.20;;;14.97;;
323;SDS011;149;51.094;17.002;2022-10-31T17:49:31;24.47;;;14.93;;
323;SDS011;149;51.094;17.002;2022-10-31T17:51:59;22.90;;;14.80;;
323;SDS011;149;51.094;17.002;2022-10-31T17:54:27;29.58;;;17.20;;
323;SDS011;149;51.094;17.002;2022-10-31T17:56:57;16.63;;;14.55;;
323;SDS011;149;51.094;17.002;2022-10-31T17:59:24;24.75;;;15.15;;
323;SDS011;149;51.094;17.002;2022-10-31T18:01:57;26.15;;;16.77;;
323;SDS011;149;51.094;17.002;2022-10-31T18:04:37;25.83;;;15.23;;
323;SDS011;149;51.094;17.002;2022-10-31T18:07:18;27.67;;;16.27;;
323;SDS011;149;51.094;17.002;2022-10-31T18:09:47;24.55;;;17.13;;
323;SDS011;149;51.094;17.002;2022-10-31T18:12:14;27.50;;;16.63;;